Time;durP1;ratioP1;P1;durP2;ratioP2;P2;SDS_P1;SDS_P2;PMS_P1;PMS_P2;Temp;Humidity;BMP_temperature;BMP_pressure;BME280_temperature;BME280_humidity;BME280_pressure;Samples;Min_cycle;Max_cycle;Signal;HPM_P1;HPM_P2
2022/05/24 00:01:25;;;;;;;2.67;1.60;;;;;;;17.91;87.38;99085.22;5030305;28;20218;-81
2022/05/24 00:03:52;;;;;;;3.03;1.87;;;;;;;17.89;87.65;99091.81;5030390;28;20575;-82
2022/05/24 00:06:19;;;;;;;1.97;1.50;;;;;;;17.85;87.89;99099.41;5029285;28;20208;-83
2022/05/24 00:08:45;;;;;;;2.80;1.93;;;;;;;17.83;88.41;99096.06;5028841;28;20316;-82
2022/05/24 00:11:12;;;;;;;1.70;1.60;;;;;;;17.79;88.58;99112.75;5028972;28;20229;-81
2022/05/24 00:13:40;;;;;;;1.50;1.37;;;;;;;17.75;88.55;99120.34;5029937;28;20583;-83
2022/05/24 00:16:07;;;;;;;1.73;1.63;;;;;;;17.70;88.75;99117.38;5009475;28;20684;-82
2022/05/24 00:18:33;;;;;;;1.77;1.67;;;;;;;17.65;88.57;99120.59;5009676;28;20669;-81
2022/05/24 00:21:04;;;;;;;1.53;1.43;;;;;;;17.56;88.16;99129.69;5010107;28;20228;-83
2022/05/24 00:23:31;;;;;;;2.97;1.43;;;;;;;17.51;87.80;99139.34;5020021;28;20207;-82
2022/05/24 00:26:01;;;;;;;1.90;1.50;;;;;;;17.45;87.57;99159.72;5029949;28;20660;-81
2022/05/24 00:28:30;;;;;;;2.50;1.40;;;;;;;17.40;87.39;99166.66;5029609;28;20803;-81
2022/05/24 00:30:58;;;;;;;2.20;2.00;;;;;;;17.30;86.71;99170.41;5029923;28;20231;-81
2022/05/24 00:33:25;;;;;;;2.03;1.93;;;;;;;17.23;86.16;99179.34;5029669;28;20209;-80
2022/05/24 00:35:52;;;;;;;12.10;2.57;;;;;;;17.15;85.41;99179.41;5030486;28;20625;-82
2022/05/24 00:38:27;;;;;;;3.73;2.60;;;;;;;17.06;84.68;99183.97;5029769;28;20232;-81
2022/05/24 00:41:05;;;;;;;3.53;3.23;;;;;;;16.98;84.22;99186.69;5030285;28;20670;-82
2022/05/24 00:43:34;;;;;;;6.20;3.13;;;;;;;16.90;84.21;99190.25;5030146;28;20200;-83
2022/05/24 00:46:07;;;;;;;3.87;3.50;;;;;;;16.85;83.65;99203.34;5030709;28;20212;-82
2022/05/24 00:48:37;;;;;;;4.10;3.60;;;;;;;16.81;83.51;99201.22;5032954;28;20219;-82
2022/05/24 00:51:05;;;;;;;4.53;4.23;;;;;;;16.77;83.46;99202.56;5034289;28;20752;-83
2022/05/24 00:53:37;;;;;;;7.33;4.47;;;;;;;16.72;83.40;99196.84;5034445;28;20209;-81
2022/05/24 00:56:10;;;;;;;5.53;4.60;;;;;;;16.69;83.67;99208.78;5034813;28;20200;-81
2022/05/24 00:58:42;;;;;;;5.27;4.77;;;;;;;16.65;83.78;99210.16;5033683;28;20218;-81
2022/05/24 01:01:29;;;;;;;7.17;6.47;;;;;;;16.59;83.48;99219.69;5033789;28;20232;-80
2022/05/24 01:03:56;;;;;;;6.73;6.17;;;;;;;16.53;83.37;99239.19;5033996;28;20222;-81
2022/05/24 01:06:22;;;;;;;7.63;6.87;;;;;;;16.50;83.47;99238.66;5029392;28;20219;-81
2022/05/24 01:08:49;;;;;;;8.50;7.80;;;;;;;16.47;83.56;99245.25;5017022;28;20551;-81
2022/05/24 01:11:17;;;;;;;7.93;7.23;;;;;;;16.44;83.48;99242.06;5013942;28;20233;-81
2022/05/24 01:13:44;;;;;;;8.90;8.00;;;;;;;16.42;83.92;99252.97;5026165;28;20204;-81
2022/05/24 01:16:13;;;;;;;8.97;8.17;;;;;;;16.39;83.86;99253.28;5021582;28;20214;-82
2022/05/24 01:18:40;;;;;;;8.70;8.00;;;;;;;16.35;83.60;99265.38;5024563;28;20234;-81
2022/05/24 01:21:09;;;;;;;8.80;7.63;;;;;;;16.31;83.36;99255.97;5033512;28;20251;-80
2022/05/24 01:23:43;;;;;;;8.90;8.10;;;;;;;16.26;83.25;99266.41;5033957;28;20203;-81
2022/05/24 01:26:14;;;;;;;9.43;8.57;;;;;;;16.23;83.20;99270.25;5021418;28;20226;-82
2022/05/24 01:28:51;;;;;;;8.53;7.73;;;;;;;16.22;83.26;99271.25;5032845;28;20203;-81
2022/05/24 01:31:18;;;;;;;9.07;8.27;;;;;;;16.22;83.03;99281.16;5031582;28;20226;-82
2022/05/24 01:36:32;;;;;;;9.40;8.60;;;;;;;16.19;83.29;99292.22;5033029;28;20263;-82
2022/05/24 01:39:02;;;;;;;9.40;8.40;;;;;;;16.14;83.08;99292.72;5032791;28;20597;-81
2022/05/24 01:41:32;;;;;;;9.07;8.17;;;;;;;16.12;nan;99301.97;5032892;28;20307;-83
2022/05/24 01:44:01;;;;;;;9.47;8.57;;;;;;;16.09;83.13;99302.31;5035727;28;20206;-83
2022/05/24 01:46:33;;;;;;;9.17;8.37;;;;;;;16.06;82.98;99305.31;5032202;28;20203;-82
2022/05/24 01:49:03;;;;;;;7.20;6.30;;;;;;;16.05;82.91;99325.13;5033279;28;20199;-83
2022/05/24 01:51:35;;;;;;;7.33;6.63;;;;;;;16.02;82.45;99320.06;5032943;28;20752;-82
2022/05/24 01:54:04;;;;;;;6.73;6.07;;;;;;;15.95;82.15;99327.94;5032516;28;20654;-80
2022/05/24 01:56:36;;;;;;;6.93;6.00;;;;;;;15.91;81.97;99329.28;5032935;28;20237;-82
2022/05/24 01:59:06;;;;;;;6.33;5.73;;;;;;;15.88;81.50;99324.22;5033060;28;20192;-82
2022/05/24 02:01:41;;;;;;;7.03;5.90;;;;;;;15.83;81.29;99339.97;5032947;28;20234;-84
2022/05/24 02:04:08;;;;;;;6.20;5.63;;;;;;;15.79;80.97;99341.31;5033218;28;20207;-84
2022/05/24 02:06:35;;;;;;;6.20;5.60;;;;;;;15.76;80.50;99347.88;5018038;28;20669;-82
2022/05/24 02:09:02;;;;;;;6.23;5.63;;;;;;;15.75;80.68;99343.50;5022387;28;20613;-81
2022/05/24 02:11:31;;;;;;;7.63;5.63;;;;;;;15.76;80.64;99355.06;5030918;28;20226;-83
2022/05/24 02:14:02;;;;;;;6.07;5.47;;;;;;;15.75;80.73;99342.66;5027362;28;20206;-82
2022/05/24 02:16:34;;;;;;;5.73;5.20;;;;;;;15.77;80.65;99348.66;5019774;28;20204;-81
2022/05/24 02:19:02;;;;;;;6.37;5.77;;;;;;;15.77;80.42;99351.34;5011757;28;20216;-81
2022/05/24 02:21:29;;;;;;;6.60;5.53;;;;;;;15.78;80.37;99361.09;5011795;28;20227;-81
2022/05/24 02:23:55;;;;;;;5.63;5.07;;;;;;;15.78;80.41;99361.94;5011369;28;20585;-82
2022/05/24 02:26:23;;;;;;;6.40;5.30;;;;;;;15.80;80.05;99361.78;5018776;28;20202;-81
2022/05/24 02:28:53;;;;;;;5.20;4.70;;;;;;;15.79;80.25;99358.25;5024550;28;20198;-82
2022/05/24 02:31:22;;;;;;;4.70;4.30;;;;;;;15.75;79.39;99362.28;5011538;28;20232;-82
2022/05/24 02:33:50;;;;;;;4.90;4.40;;;;;;;15.73;79.19;99366.13;5011250;28;20203;-82
2022/05/24 02:36:18;;;;;;;5.63;4.40;;;;;;;15.65;78.79;99356.19;5025724;28;20226;-83
2022/05/24 02:38:45;;;;;;;6.27;4.90;;;;;;;15.60;78.12;99364.72;5032349;28;20231;-82
2022/05/24 02:41:29;;;;;;;4.53;4.13;;;;;;;15.57;78.18;99373.09;5012391;28;20246;-81
2022/05/24 02:43:57;;;;;;;6.23;5.27;;;;;;;15.54;77.58;99369.88;5022068;28;20546;-82
2022/05/24 02:46:24;;;;;;;5.20;4.70;;;;;;;15.52;77.65;99370.03;5032508;28;20211;-83
2022/05/24 02:48:52;;;;;;;4.90;4.40;;;;;;;15.54;77.62;99372.53;5032546;28;20194;-82
2022/05/24 02:51:19;;;;;;;5.50;5.00;;;;;;;15.52;77.89;99377.22;5031525;28;20234;-81
2022/05/24 02:53:46;;;;;;;5.30;4.80;;;;;;;15.52;77.64;99374.53;5031484;28;20212;-82
2022/05/24 02:56:13;;;;;;;5.50;4.57;;;;;;;15.54;77.61;99380.59;5030356;28;20208;-80
2022/05/24 02:58:40;;;;;;;5.47;4.97;;;;;;;15.54;78.46;99384.13;5030708;28;20709;-82
2022/05/24 03:01:13;;;;;;;5.53;4.53;;;;;;;15.55;77.49;99376.91;5020170;28;20218;-82
2022/05/24 03:03:40;;;;;;;5.53;4.77;;;;;;;15.53;77.65;99376.22;5031294;28;20223;-82
2022/05/24 03:06:07;;;;;;;5.27;4.60;;;;;;;15.52;77.45;99378.06;5030627;28;20293;-79
2022/05/24 03:11:18;;;;;;;5.03;4.53;;;;;;;15.49;77.59;99394.47;5031964;28;20237;-81
2022/05/24 03:16:29;;;;;;;5.93;5.10;;;;;;;15.48;77.38;99405.38;5030276;28;20643;-81
2022/05/24 03:18:55;;;;;;;6.47;5.13;;;;;;;15.48;77.89;99408.91;5045599;28;20217;-83
2022/05/24 03:21:23;;;;;;;5.53;5.03;;;;;;;15.47;77.86;99404.53;5050602;28;20235;-81
2022/05/24 03:23:50;;;;;;;5.23;4.73;;;;;;;15.46;77.76;99407.38;5051265;28;20214;-81
2022/05/24 03:26:16;;;;;;;5.20;4.60;;;;;;;15.43;77.83;99411.19;5050564;28;20209;-81
2022/05/24 03:28:46;;;;;;;5.23;4.53;;;;;;;15.41;77.85;99410.50;5032213;28;20199;-79
2022/05/24 03:31:14;;;;;;;4.97;4.47;;;;;;;15.40;77.58;99413.38;5031018;28;20284;-81
2022/05/24 03:33:41;;;;;;;7.43;5.10;;;;;;;15.39;77.85;99417.06;5031394;28;20696;-81
2022/05/24 03:36:08;;;;;;;6.10;4.87;;;;;;;15.37;77.88;99413.69;5019210;28;20222;-80
2022/05/24 03:38:36;;;;;;;6.40;4.63;;;;;;;15.36;77.86;99418.22;5017404;28;20724;-81
2022/05/24 03:41:02;;;;;;;5.33;3.90;;;;;;;15.36;78.14;99407.50;5020907;28;20235;-80
2022/05/24 03:43:29;;;;;;;5.13;4.57;;;;;;;15.37;77.93;99405.66;5022903;28;20914;-81
2022/05/24 03:46:01;;;;;;;5.47;4.83;;;;;;;15.37;78.08;99419.06;5031256;28;20206;-80
2022/05/24 03:48:28;;;;;;;6.23;4.80;;;;;;;15.38;78.02;99420.75;5029738;28;20657;-80
2022/05/24 03:50:55;;;;;;;6.70;5.27;;;;;;;15.39;77.99;99417.91;5028262;28;20238;-79
2022/05/24 03:53:22;;;;;;;5.47;4.90;;;;;;;15.39;78.12;99422.44;5015441;28;20199;-81
2022/05/24 03:55:50;;;;;;;5.77;4.80;;;;;;;15.39;78.08;99422.44;5028811;28;20672;-81
2022/05/24 03:58:17;;;;;;;5.47;4.90;;;;;;;15.39;78.04;99434.00;5029971;28;20684;-82
2022/05/24 04:00:44;;;;;;;5.40;4.60;;;;;;;15.39;78.12;99446.56;5030141;28;20234;-80
2022/05/24 04:03:11;;;;;;;5.67;4.67;;;;;;;15.38;78.33;99432.31;5012422;28;20202;-82
2022/05/24 04:05:37;;;;;;;5.40;4.90;;;;;;;15.39;78.30;99435.84;5022519;28;20833;-81
2022/05/24 04:08:05;;;;;;;6.07;4.83;;;;;;;15.39;78.43;99430.47;5018916;28;20209;-80
2022/05/24 04:10:32;;;;;;;5.33;4.83;;;;;;;15.35;78.36;99416.53;5020627;28;20341;-81
2022/05/24 04:13:01;;;;;;;5.23;4.73;;;;;;;15.33;78.10;99423.06;5023333;28;20212;-81
2022/05/24 04:15:28;;;;;;;5.60;4.17;;;;;;;15.33;78.37;99425.72;5020583;28;20210;-82
2022/05/24 04:17:55;;;;;;;5.73;4.80;;;;;;;15.31;78.03;99419.69;5022025;28;20886;-81
2022/05/24 04:20:24;;;;;;;5.37;4.87;;;;;;;15.32;78.19;99421.38;5017506;28;20230;-83
2022/05/24 04:22:52;;;;;;;8.37;5.03;;;;;;;15.31;78.25;99423.19;5019695;28;20218;-80
2022/05/24 04:25:19;;;;;;;6.17;4.37;;;;;;;15.34;77.89;99430.94;5029539;28;20230;-81
2022/05/24 04:27:45;;;;;;;4.83;4.40;;;;;;;15.37;77.87;99440.53;5014423;28;20742;-82
2022/05/24 04:30:14;;;;;;;5.83;4.70;;;;;;;15.39;78.07;99430.47;5026742;28;20591;-81
2022/05/24 04:32:41;;;;;;;6.13;4.93;;;;;;;15.40;78.13;99440.22;5018182;28;20608;-82
2022/05/24 04:35:08;;;;;;;4.17;3.87;;;;;;;15.40;77.95;99435.69;5021640;28;20211;-80
2022/05/24 04:37:35;;;;;;;5.03;4.50;;;;;;;15.41;77.97;99449.91;5025993;28;20288;-81
2022/05/24 04:40:02;;;;;;;4.33;3.83;;;;;;;15.42;77.71;99444.41;5022533;28;20214;-82
2022/05/24 04:42:27;;;;;;;5.30;4.73;;;;;;;15.43;78.12;99442.56;5015455;28;20207;-81
2022/05/24 04:44:57;;;;;;;5.13;4.30;;;;;;;15.46;77.80;99442.25;5014007;28;20289;-82
2022/05/24 04:47:28;;;;;;;6.73;5.60;;;;;;;15.46;77.92;99436.88;5016428;28;20206;-81
2022/05/24 04:49:57;;;;;;;5.37;4.87;;;;;;;15.47;77.75;99430.50;5025252;28;20214;-80
2022/05/24 04:52:25;;;;;;;5.87;4.50;;;;;;;15.48;77.85;99429.50;5023597;28;20210;-80
2022/05/24 04:54:53;;;;;;;7.37;6.20;;;;;;;15.49;77.91;99428.53;5016600;28;20208;-81
2022/05/24 04:57:21;;;;;;;6.53;5.90;;;;;;;15.50;77.84;99422.16;5017445;28;20596;-81
2022/05/24 04:59:48;;;;;;;6.73;5.93;;;;;;;15.51;77.68;99427.38;5019479;28;20226;-80
2022/05/24 05:02:15;;;;;;;6.57;5.93;;;;;;;15.52;77.90;99417.47;5018379;28;20210;-82
2022/05/24 05:04:43;;;;;;;11.33;7.07;;;;;;;15.52;77.73;99421.00;5016754;28;20199;-80
2022/05/24 05:07:10;;;;;;;7.43;6.63;;;;;;;15.52;77.62;99425.53;5023744;28;20212;-80
2022/05/24 05:09:38;;;;;;;8.33;7.47;;;;;;;15.52;77.80;99423.69;5019626;28;20226;-80
2022/05/24 05:12:06;;;;;;;7.97;7.17;;;;;;;15.53;77.82;99420.00;5021072;28;20365;-81
2022/05/24 05:14:32;;;;;;;8.97;7.53;;;;;;;15.54;77.63;99426.22;5028940;28;20207;-81
2022/05/24 05:16:59;;;;;;;9.50;7.80;;;;;;;15.56;78.15;99429.63;5021184;28;20213;-80
2022/05/24 05:19:27;;;;;;;9.53;8.60;;;;;;;15.58;77.85;99430.31;5033550;28;20571;-79
2022/05/24 05:21:55;;;;;;;10.07;9.17;;;;;;;15.59;77.99;99432.81;5028496;28;20222;-80
2022/05/24 05:24:22;;;;;;;9.40;8.50;;;;;;;15.61;78.26;99432.63;5029182;28;20210;-80
2022/05/24 05:26:49;;;;;;;13.03;10.20;;;;;;;15.62;78.03;99439.69;5029046;28;20207;-79
2022/05/24 05:31:16;;;;;;;11.53;10.30;;;;;;;15.64;77.91;99443.06;5029575;28;20199;-81
2022/05/24 05:32:02;;;;;;;10.17;9.27;;;;;;;15.62;77.80;99445.06;5017049;28;20239;-81
2022/05/24 05:34:28;;;;;;;12.43;11.17;;;;;;;15.61;77.95;99441.53;5019982;28;20199;-80
2022/05/24 05:36:56;;;;;;;11.90;10.80;;;;;;;15.59;78.14;99440.84;5022079;28;20226;-81
2022/05/24 05:39:23;;;;;;;12.37;10.37;;;;;;;15.59;78.13;99440.84;5016390;28;20220;-81
2022/05/24 05:41:49;;;;;;;12.53;10.70;;;;;;;15.62;78.36;99447.75;5020077;28;20227;-80
2022/05/24 05:44:16;;;;;;;12.87;10.73;;;;;;;15.63;78.38;99457.47;5023258;28;20252;-81
2022/05/24 05:46:42;;;;;;;12.23;11.03;;;;;;;15.67;78.66;99466.06;5020997;28;20203;-82
2022/05/24 05:49:10;;;;;;;11.57;10.37;;;;;;;15.70;78.83;99461.22;5017910;28;20202;-80
2022/05/24 05:51:36;;;;;;;12.73;11.63;;;;;;;15.71;78.75;99465.59;5017694;28;20705;-82
2022/05/24 05:54:05;;;;;;;11.80;10.70;;;;;;;15.73;78.80;99468.97;5012867;28;20214;-80
2022/05/24 05:56:31;;;;;;;12.77;11.63;;;;;;;15.76;79.10;99465.97;5012507;28;20218;-80
2022/05/24 05:58:58;;;;;;;13.47;12.10;;;;;;;15.82;79.19;99472.53;5013337;28;20226;-81
2022/05/24 06:01:29;;;;;;;14.03;12.50;;;;;;;15.83;79.51;99472.38;5017458;28;20227;-80
2022/05/24 06:03:56;;;;;;;13.43;12.23;;;;;;;15.89;79.55;99474.44;5018434;28;20638;-80
2022/05/24 06:06:26;;;;;;;15.60;13.50;;;;;;;15.94;78.97;99490.88;5023495;28;20210;-81
2022/05/24 06:08:52;;;;;;;13.77;12.33;;;;;;;15.98;79.02;99494.09;5030706;28;20282;-80
2022/05/24 06:11:20;;;;;;;13.77;12.47;;;;;;;16.02;79.14;99503.53;5012255;28;20227;-82
2022/05/24 06:13:48;;;;;;;13.87;12.47;;;;;;;16.06;78.83;99494.16;5012339;28;20208;-80
2022/05/24 06:16:15;;;;;;;14.10;12.60;;;;;;;16.10;78.69;99492.84;5011812;28;20257;-82
2022/05/24 06:18:41;;;;;;;14.07;12.73;;;;;;;16.15;78.88;99489.66;5012099;28;20251;-81
2022/05/24 06:21:08;;;;;;;13.27;11.97;;;;;;;16.19;78.71;99497.22;5012223;28;20223;-81
2022/05/24 06:23:35;;;;;;;12.50;11.30;;;;;;;16.24;78.53;99494.91;5012111;28;20835;-80
2022/05/24 06:26:01;;;;;;;11.70;10.50;;;;;;;16.31;78.70;99495.09;5011924;28;20215;-81
2022/05/24 06:28:29;;;;;;;11.00;10.00;;;;;;;16.39;78.20;99505.03;5024322;28;20218;-81
2022/05/24 06:30:56;;;;;;;11.17;10.07;;;;;;;16.42;78.07;99494.81;5032095;28;20227;-80
2022/05/24 06:33:22;;;;;;;10.10;9.20;;;;;;;16.46;77.46;99496.19;5032013;28;20295;-81
2022/05/24 06:35:49;;;;;;;10.27;9.33;;;;;;;16.49;77.19;99492.31;5032327;28;20214;-82
2022/05/24 06:38:16;;;;;;;9.33;8.43;;;;;;;16.54;77.10;99496.19;5031284;28;20238;-81
2022/05/24 06:40:43;;;;;;;9.30;8.43;;;;;;;16.59;76.90;99495.72;5031278;28;20226;-81
2022/05/24 06:43:10;;;;;;;8.53;7.73;;;;;;;16.67;76.74;99511.88;5031577;28;20685;-81
2022/05/24 06:45:37;;;;;;;8.73;7.83;;;;;;;16.75;76.52;99505.69;5029035;28;20210;-81
2022/05/24 06:48:07;;;;;;;9.30;8.43;;;;;;;16.84;76.20;99512.78;5030950;28;20210;-81
2022/05/24 06:50:34;;;;;;;8.80;7.30;;;;;;;16.92;76.08;99510.09;5025527;28;20325;-81
2022/05/24 06:53:01;;;;;;;8.37;7.40;;;;;;;16.99;75.38;99521.91;5029081;28;20659;-80
2022/05/24 06:55:27;;;;;;;8.13;7.33;;;;;;;17.02;74.98;99522.38;5015133;28;20201;-80
2022/05/24 06:57:54;;;;;;;9.30;7.37;;;;;;;17.05;74.55;99523.91;5019395;28;20205;-82
2022/05/24 07:03:09;;;;;;;7.97;7.17;;;;;;;17.13;74.32;99534.69;5030729;28;20216;-80
2022/05/24 07:05:36;;;;;;;7.87;7.07;;;;;;;17.20;74.29;99530.31;5027916;28;20209;-80
2022/05/24 07:08:03;;;;;;;7.43;6.67;;;;;;;17.25;74.26;99530.66;5030047;28;20687;-81
2022/05/24 07:10:30;;;;;;;8.03;7.23;;;;;;;17.29;73.83;99534.69;5030743;28;20225;-80
2022/05/24 07:13:02;;;;;;;7.07;6.30;;;;;;;17.31;73.43;99540.75;5030854;28;20717;-80
2022/05/24 07:15:29;;;;;;;7.50;6.80;;;;;;;17.34;73.36;99543.13;5029055;28;20202;-81
2022/05/24 07:17:56;;;;;;;7.00;6.40;;;;;;;17.35;72.94;99543.97;5029785;28;20206;-80
2022/05/24 07:20:25;;;;;;;7.17;6.47;;;;;;;17.38;72.75;99543.59;5029707;28;20226;-80
2022/05/24 07:22:52;;;;;;;7.40;6.70;;;;;;;17.46;72.91;99542.78;5030805;28;20692;-81
2022/05/24 07:25:19;;;;;;;7.50;6.60;;;;;;;17.52;72.79;99539.44;5030904;28;20205;-81
2022/05/24 07:27:46;;;;;;;7.10;6.40;;;;;;;17.55;72.46;99542.63;5029466;28;20234;-80
2022/05/24 07:30:13;;;;;;;8.37;6.97;;;;;;;17.62;72.44;99540.09;5029774;28;20245;-81
2022/05/24 07:32:39;;;;;;;9.03;7.10;;;;;;;17.69;72.53;99541.13;5030605;28;20577;-81
2022/05/24 07:35:07;;;;;;;7.60;6.90;;;;;;;17.77;72.71;99533.03;5029855;28;20217;-81
2022/05/24 07:37:35;;;;;;;7.20;6.60;;;;;;;17.89;72.46;99542.47;5029626;28;20758;-81
2022/05/24 07:45:49;;;;;;;6.97;6.37;;;;;;;18.26;71.03;99532.94;5030453;28;20609;-80
2022/05/24 07:48:16;;;;;;;7.60;6.90;;;;;;;18.37;70.60;99532.56;5035727;28;20205;-81
2022/05/24 07:50:43;;;;;;;7.40;6.60;;;;;;;18.44;70.10;99546.19;5029901;28;20224;-80
2022/05/24 07:53:11;;;;;;;8.40;6.57;;;;;;;18.48;69.19;99548.34;5033845;28;20839;-82
2022/05/24 07:55:38;;;;;;;7.17;6.23;;;;;;;18.49;68.52;99550.03;5047759;28;20207;-81
2022/05/24 07:58:05;;;;;;;12.43;6.50;;;;;;;18.48;68.31;99552.88;5049677;28;20577;-80
2022/05/24 08:00:32;;;;;;;7.50;6.70;;;;;;;18.49;68.72;99551.88;5049468;28;20281;-81
2022/05/24 08:03:01;;;;;;;6.67;6.03;;;;;;;18.50;68.96;99554.41;5049617;28;20219;-83
2022/05/24 08:05:30;;;;;;;7.40;6.70;;;;;;;18.49;69.19;99559.97;5049183;28;20211;-80
2022/05/24 08:07:57;;;;;;;8.67;7.20;;;;;;;18.43;69.40;99566.91;5049555;28;20211;-81
2022/05/24 08:10:25;;;;;;;8.63;7.70;;;;;;;18.40;69.68;99572.66;5034995;28;20747;-81
2022/05/24 08:12:52;;;;;;;10.20;8.17;;;;;;;18.35;70.40;99570.47;5027432;28;20208;-80
2022/05/24 08:15:19;;;;;;;11.17;8.53;;;;;;;18.33;71.47;99583.28;5029475;28;20223;-81
2022/05/24 08:17:45;;;;;;;11.57;8.67;;;;;;;18.29;71.74;99616.97;5030325;28;20203;-82
2022/05/24 08:20:13;;;;;;;8.63;6.33;;;;;;;18.14;71.65;99639.41;5010384;28;20243;-83
2022/05/24 08:22:40;;;;;;;6.77;5.30;;;;;;;17.90;71.26;99633.03;5009096;28;20668;-82
2022/05/24 08:25:11;;;;;;;5.67;5.17;;;;;;;17.57;71.31;99628.59;5028170;28;20676;-81
2022/05/24 08:27:39;;;;;;;6.10;5.27;;;;;;;17.30;72.16;99630.56;5019113;28;20220;-82
2022/05/24 08:30:07;;;;;;;5.77;5.23;;;;;;;17.11;73.08;99640.78;5035543;28;20233;-81
2022/05/24 08:32:35;;;;;;;5.43;4.93;;;;;;;16.91;73.75;99654.50;5036860;28;20206;-80
2022/05/24 08:35:02;;;;;;;5.90;5.30;;;;;;;16.73;74.51;99669.03;5030695;28;20217;-81
2022/05/24 08:37:29;;;;;;;5.50;4.60;;;;;;;16.56;74.59;99662.69;5017023;28;20267;-81
2022/05/24 08:39:57;;;;;;;3.77;3.13;;;;;;;16.36;74.68;99669.28;5020121;28;20229;-82
2022/05/24 08:42:28;;;;;;;3.57;2.27;;;;;;;16.16;74.55;99663.25;5018527;28;20240;-84
2022/05/24 08:50:38;;;;;;;3.30;2.87;;;;;;;15.65;75.17;99682.78;5024104;28;20279;-83
2022/05/24 08:53:07;;;;;;;3.17;2.47;;;;;;;15.56;75.74;99679.19;5025541;28;20217;-81
2022/05/24 08:55:38;;;;;;;2.67;2.43;;;;;;;15.49;75.97;99688.81;5012506;28;20245;-82
2022/05/24 08:58:10;;;;;;;5.23;3.10;;;;;;;15.45;76.47;99690.94;5015280;28;20209;-81
2022/05/24 09:00:40;;;;;;;2.40;2.20;;;;;;;15.42;77.40;99703.81;5017420;28;20231;-81
2022/05/24 09:03:08;;;;;;;2.53;2.23;;;;;;;15.37;77.23;99715.00;5020119;28;20265;-81
2022/05/24 09:05:38;;;;;;;3.53;2.63;;;;;;;15.35;77.40;99702.75;5012296;28;20206;-81
2022/05/24 09:08:17;;;;;;;3.60;2.73;;;;;;;15.26;77.10;99696.44;5010507;28;20317;-82
2022/05/24 09:10:50;;;;;;;2.93;2.17;;;;;;;15.19;76.81;99698.88;5019766;28;20225;-83
2022/05/24 09:13:48;;;;;;;2.23;2.03;;;;;;;15.13;77.00;99698.63;5026572;28;20207;-82
2022/05/24 09:16:17;;;;;;;2.33;2.13;;;;;;;15.07;77.04;99702.75;5016436;28;20204;-82
2022/05/24 09:18:54;;;;;;;3.00;2.17;;;;;;;15.02;76.75;99675.53;5020438;28;20207;-82
2022/05/24 09:21:23;;;;;;;4.33;2.60;;;;;;;14.99;76.68;99670.47;5026053;28;20241;-81
2022/05/24 09:23:56;;;;;;;2.40;2.20;;;;;;;15.00;77.25;99668.63;5022078;28;20226;-82
2022/05/24 09:26:24;;;;;;;4.30;3.27;;;;;;;15.05;78.16;99698.53;5025285;28;20198;-84
2022/05/24 09:28:55;;;;;;;2.57;2.23;;;;;;;15.11;78.20;99725.59;5021975;28;20215;-84
2022/05/24 09:31:28;;;;;;;1.90;1.80;;;;;;;15.13;78.07;99720.94;5015204;28;20232;-82
2022/05/24 09:33:58;;;;;;;2.77;2.43;;;;;;;15.16;78.07;99714.44;5000034;28;20868;-83
2022/05/24 09:36:32;;;;;;;2.40;2.20;;;;;;;15.16;78.02;99717.94;5020360;28;20211;-83
2022/05/24 09:38:59;;;;;;;2.90;2.60;;;;;;;15.16;78.03;99725.16;5017957;28;20228;-83
2022/05/24 09:41:25;;;;;;;2.07;1.97;;;;;;;15.15;77.43;99732.34;5023147;28;20222;-83
2022/05/24 09:44:01;;;;;;;3.27;2.40;;;;;;;15.12;77.26;99743.38;5021198;28;20214;-82
2022/05/24 09:46:30;;;;;;;2.30;2.10;;;;;;;15.10;77.19;99739.16;5016149;28;20233;-82
2022/05/24 09:49:03;;;;;;;2.30;2.10;;;;;;;15.03;76.60;99738.06;5015797;28;20713;-84
2022/05/24 09:51:38;;;;;;;2.73;2.10;;;;;;;15.00;76.45;99735.69;5011340;28;20226;-82
2022/05/24 09:54:12;;;;;;;2.10;1.73;;;;;;;14.99;76.42;99733.97;5010035;28;20320;-83
2022/05/24 09:56:38;;;;;;;2.53;2.10;;;;;;;14.97;76.87;99744.00;5010108;28;20276;-83
2022/05/24 09:59:07;;;;;;;2.67;2.30;;;;;;;15.00;77.01;99746.41;5013121;28;20199;-82
2022/05/24 10:01:40;;;;;;;2.40;2.20;;;;;;;15.02;77.35;99752.47;5009382;28;20227;-82
2022/05/24 10:04:17;;;;;;;4.97;2.60;;;;;;;15.03;77.15;99754.16;5009187;28;20265;-83
2022/05/24 10:06:52;;;;;;;3.30;2.30;;;;;;;15.05;77.48;99752.19;5018916;28;20657;-83
2022/05/24 10:09:40;;;;;;;3.07;2.13;;;;;;;15.07;77.33;99767.09;5025797;28;20189;-83
2022/05/24 10:12:23;;;;;;;2.90;2.30;;;;;;;15.08;77.50;99771.47;5017209;28;20223;-84
2022/05/24 10:15:00;;;;;;;3.03;2.23;;;;;;;15.11;77.33;99781.06;5031837;28;20571;-83
2022/05/24 10:17:37;;;;;;;3.23;2.00;;;;;;;15.14;77.27;99788.81;5023905;28;20236;-84
2022/05/24 10:20:14;;;;;;;3.00;2.47;;;;;;;15.18;77.45;99798.28;5025202;28;20218;-84
2022/05/24 10:22:48;;;;;;;3.30;2.27;;;;;;;15.21;76.75;99780.06;5015569;28;20253;-84
2022/05/24 10:25:19;;;;;;;3.37;2.40;;;;;;;15.24;76.39;99782.41;5012861;28;20205;-83
2022/05/24 10:27:57;;;;;;;2.63;2.30;;;;;;;15.27;76.64;99776.75;5012166;28;20191;-85
2022/05/24 10:30:31;;;;;;;3.23;2.80;;;;;;;15.35;76.56;99783.22;5013066;28;20630;-85
2022/05/24 10:39:24;;;;;;;4.20;2.93;;;;;;;15.60;75.54;99787.91;5052364;28;20227;-83
2022/05/24 10:42:02;;;;;;;3.23;2.70;;;;;;;15.68;75.17;99792.53;5035615;28;20226;-83
2022/05/24 10:44:36;;;;;;;5.13;2.90;;;;;;;15.78;75.02;99794.16;5032836;28;20235;-82
2022/05/24 10:47:07;;;;;;;3.87;3.40;;;;;;;15.86;74.22;99805.00;5026294;28;20223;-83
2022/05/24 10:49:42;;;;;;;4.87;2.80;;;;;;;15.98;74.32;99811.84;5023901;28;20196;-83
2022/05/24 10:52:16;;;;;;;4.07;2.80;;;;;;;16.17;74.92;99815.38;5017159;28;20218;-83
2022/05/24 10:54:50;;;;;;;4.73;3.10;;;;;;;16.34;73.46;99819.91;5018379;28;20203;-84
2022/05/24 10:57:20;;;;;;;4.50;3.43;;;;;;;16.50;73.36;99822.72;5020230;28;20208;-83
2022/05/24 10:59:55;;;;;;;3.77;3.47;;;;;;;16.65;73.00;99823.09;5020652;28;20568;-83
2022/05/24 11:02:29;;;;;;;3.80;3.33;;;;;;;16.78;72.31;99826.19;5012571;28;20197;-83
2022/05/24 11:05:07;;;;;;;3.63;3.30;;;;;;;16.86;70.89;99828.09;5012242;28;20191;-83
2022/05/24 11:07:35;;;;;;;3.47;2.80;;;;;;;16.84;69.16;99830.13;5012047;28;20839;-84
2022/05/24 11:10:09;;;;;;;3.60;2.50;;;;;;;16.83;68.88;99825.72;5012257;28;20210;-83
2022/05/24 11:12:41;;;;;;;2.13;1.93;;;;;;;16.89;68.74;99825.09;5012442;28;20202;-83
2022/05/24 11:15:17;;;;;;;4.03;2.70;;;;;;;16.99;67.81;99831.22;5024635;28;20223;-83
2022/05/24 11:17:44;;;;;;;2.90;2.27;;;;;;;17.12;67.70;99845.09;5019431;28;20200;-83
2022/05/24 11:20:14;;;;;;;2.50;1.87;;;;;;;17.24;66.89;99838.44;5021124;28;20787;-83
2022/05/24 11:22:46;;;;;;;2.27;1.47;;;;;;;17.39;66.17;99845.91;5018221;28;20404;-83
2022/05/24 11:25:20;;;;;;;2.50;1.70;;;;;;;17.56;66.21;99839.59;5018937;28;20206;-84
2022/05/24 11:27:51;;;;;;;2.33;1.20;;;;;;;17.74;65.05;99842.22;5015166;28;20191;-82
2022/05/24 11:30:32;;;;;;;2.40;1.60;;;;;;;17.87;63.76;99842.63;5012438;28;20235;-82
2022/05/24 11:33:09;;;;;;;2.60;1.30;;;;;;;18.00;62.64;99851.94;5012164;28;20566;-82
2022/05/24 11:35:40;;;;;;;1.23;1.13;;;;;;;18.08;61.13;99861.91;5011654;28;20592;-82
2022/05/24 11:38:14;;;;;;;2.07;1.20;;;;;;;18.17;60.87;99868.13;5011305;28;20239;-84
2022/05/24 11:40:56;;;;;;;3.63;1.30;;;;;;;18.28;60.33;99860.56;5019613;28;20228;-82
2022/05/24 11:43:58;;;;;;;1.57;1.03;;;;;;;18.38;59.58;99863.13;5014147;28;20214;-82
2022/05/24 11:46:48;;;;;;;2.87;1.30;;;;;;;18.48;59.10;99854.88;5016956;28;20207;-82
2022/05/24 11:49:48;;;;;;;1.50;1.10;;;;;;;18.62;59.25;99856.97;5018140;28;20247;-82
2022/05/24 11:53:02;;;;;;;3.00;1.27;;;;;;;18.75;58.11;99851.06;5016497;28;20224;-81
2022/05/24 11:55:46;;;;;;;0.70;0.63;;;;;;;18.82;57.07;99860.97;4962408;28;20209;-81
2022/05/24 11:58:39;;;;;;;1.50;0.90;;;;;;;18.90;57.07;99857.44;5017179;28;20201;-83
2022/05/24 12:01:09;;;;;;;5.03;1.40;;;;;;;19.05;57.04;99866.53;5020663;28;20728;-82
2022/05/24 12:09:18;;;;;;;3.20;0.97;;;;;;;19.39;55.88;99872.53;5011445;28;20214;-82
2022/05/24 12:11:47;;;;;;;1.10;0.60;;;;;;;19.42;54.65;99872.19;5013869;28;20236;-82
2022/05/24 12:14:18;;;;;;;4.67;0.80;;;;;;;19.42;52.73;99879.47;5015785;28;20209;-82
2022/05/24 12:17:13;;;;;;;0.97;0.67;;;;;;;19.34;53.06;99874.94;5020552;28;20213;-81
2022/05/24 12:20:00;;;;;;;0.63;0.60;;;;;;;19.37;53.65;99873.72;5020335;28;20218;-82